Time;durP1;ratioP1;P1;durP2;ratioP2;P2;SDS_P1;SDS_P2;PMS_P1;PMS_P2;Temp;Humidity;BMP_temperature;BMP_pressure;BME280_temperature;BME280_humidity;BME280_pressure;Samples;Min_cycle;Max_cycle;Signal;HPM_P1;HPM_P2
2022/01/02 00:00:15;;;;;;;5.63;4.18;;;6.50;77.90;;;5.63;63.42;95678.25;5085872;28;20304;-85
2022/01/02 00:02:50;;;;;;;6.47;4.53;;;6.50;78.30;;;5.67;63.60;95680.44;5103050;28;20214;-85
2022/01/02 00:05:21;;;;;;;7.53;4.53;;;6.50;77.90;;;5.68;63.58;95676.88;5099730;28;20210;-86
2022/01/02 00:08:07;;;;;;;4.90;3.95;;;6.60;78.20;;;5.70;63.33;95668.91;5085535;28;20648;-85
2022/01/02 00:10:52;;;;;;;5.72;4.25;;;6.50;78.60;;;5.67;63.39;95664.00;5083348;28;20219;-85
2022/01/02 00:13:33;;;;;;;6.80;3.92;;;6.50;78.20;;;5.65;63.23;95663.31;5073713;28;20198;-85
2022/01/02 00:16:07;;;;;;;4.65;3.67;;;6.60;78.20;;;5.57;62.98;95651.84;5074471;28;20222;-85
2022/01/02 00:18:38;;;;;;;4.80;4.05;;;6.50;77.80;;;5.61;62.96;95662.78;5072721;28;20286;-85
2022/01/02 00:21:07;;;;;;;4.03;3.42;;;6.50;77.90;;;5.60;63.02;95650.75;5092112;28;20218;-85
2022/01/02 00:23:49;;;;;;;5.40;3.42;;;6.50;77.90;;;5.59;63.28;95643.88;5093775;28;20195;-85
2022/01/02 00:26:18;;;;;;;5.55;3.42;;;6.50;78.00;;;5.59;63.27;95643.88;5076548;28;20222;-85
2022/01/02 00:28:49;;;;;;;5.13;3.63;;;6.50;77.90;;;5.57;63.30;95646.63;5077503;28;20198;-85
2022/01/02 00:31:16;;;;;;;5.72;3.50;;;6.50;78.20;;;5.50;62.94;95640.34;5074431;28;20720;-84
2022/01/02 00:33:44;;;;;;;4.28;3.38;;;6.50;77.90;;;5.50;63.15;95637.75;5096992;28;20186;-83
2022/01/02 00:36:12;;;;;;;4.35;3.50;;;6.40;77.80;;;5.44;62.96;95633.13;5091081;28;20268;-84
2022/01/02 00:38:40;;;;;;;6.00;3.78;;;6.40;77.80;;;5.42;63.00;95625.47;5093705;28;20197;-84
2022/01/02 00:41:08;;;;;;;4.63;3.53;;;6.40;77.80;;;5.38;63.64;95616.31;5093766;28;20219;-84
2022/01/02 00:43:46;;;;;;;4.53;3.60;;;6.40;77.80;;;5.37;63.09;95629.44;5076740;28;20195;-85
2022/01/02 00:46:14;;;;;;;6.53;3.90;;;6.30;77.80;;;5.36;63.17;95623.44;5091151;28;20306;-85
2022/01/02 00:48:47;;;;;;;4.45;3.15;;;6.30;77.90;;;5.36;63.46;95623.44;5074475;28;20203;-85
2022/01/02 00:51:42;;;;;;;4.43;3.35;;;6.30;78.10;;;5.30;63.08;95616.22;5072487;28;20238;-86
2022/01/02 00:54:14;;;;;;;4.25;3.08;;;6.30;78.70;;;5.33;63.63;95618.50;5056392;28;20676;-86
2022/01/02 00:56:46;;;;;;;4.50;3.30;;;6.30;78.10;;;5.32;63.72;95610.84;5090237;28;20187;-86
2022/01/02 00:59:27;;;;;;;5.30;3.80;;;6.30;78.30;;;5.34;63.20;95627.16;5075175;28;20218;-85
2022/01/02 01:02:03;;;;;;;5.32;3.92;;;6.30;78.90;;;5.38;63.54;95623.28;5075487;28;20199;-85
2022/01/02 01:04:33;;;;;;;5.35;3.35;;;6.30;78.50;;;5.36;63.53;95628.66;5075059;28;20206;-85
2022/01/02 01:07:05;;;;;;;4.95;3.72;;;6.20;78.30;;;5.34;63.18;95616.75;5088122;28;20271;-86
2022/01/02 01:09:34;;;;;;;3.80;3.40;;;6.20;78.60;;;5.35;63.57;95621.78;5072058;28;20217;-85
2022/01/02 01:12:03;;;;;;;5.50;3.45;;;6.20;78.20;;;5.32;63.39;95610.84;5071569;28;20771;-85
2022/01/02 01:14:31;;;;;;;5.20;3.65;;;6.30;78.30;;;5.34;63.66;95611.53;5089466;28;20210;-85
2022/01/02 01:16:58;;;;;;;4.03;3.42;;;6.20;78.20;;;5.32;63.57;95608.25;5076659;28;20207;-85
2022/01/02 01:19:26;;;;;;;4.32;3.22;;;6.20;78.20;;;5.24;63.45;95595.97;5094060;28;20202;-86
2022/01/02 01:21:54;;;;;;;5.00;3.38;;;6.20;78.20;;;5.23;63.46;95591.72;5076933;28;20298;-85
2022/01/02 01:24:21;;;;;;;6.07;3.47;;;6.20;78.20;;;5.26;63.44;95605.25;5092139;28;20183;-85
2022/01/02 01:26:52;;;;;;;4.63;3.42;;;6.20;78.20;;;5.27;63.62;95590.47;5060111;28;20225;-84
2022/01/02 01:29:20;;;;;;;4.38;3.58;;;6.20;78.40;;;5.32;63.91;95588.25;5076686;28;20198;-85
2022/01/02 01:31:47;;;;;;;5.05;3.53;;;6.20;78.50;;;5.34;63.73;95575.94;5060084;28;20581;-84
2022/01/02 01:34:14;;;;;;;3.55;3.10;;;6.20;78.60;;;5.36;63.82;95580.97;5093319;28;20210;-85
2022/01/02 01:36:41;;;;;;;4.32;3.25;;;6.20;78.60;;;5.39;63.83;95584.13;5093700;28;20712;-84
2022/01/02 01:39:08;;;;;;;5.35;3.42;;;6.20;78.70;;;5.42;63.70;95583.00;5093273;28;20600;-85
2022/01/02 01:41:38;;;;;;;5.15;3.40;;;6.20;78.70;;;5.40;63.84;95571.94;5093163;28;20725;-85
2022/01/02 01:46:41;;;;;;;3.15;2.85;;;6.30;78.80;;;5.45;63.84;95575.75;5093657;28;20282;-85
2022/01/02 01:49:20;;;;;;;4.13;3.22;;;6.30;78.80;;;5.40;63.63;95567.56;5093581;28;20277;-85
2022/01/02 01:51:48;;;;;;;4.15;3.05;;;6.30;79.20;;;5.43;63.59;95567.28;5076283;28;20214;-85
2022/01/02 01:54:20;;;;;;;3.95;2.92;;;6.30;78.60;;;5.38;63.86;95560.84;5093759;28;20198;-85
2022/01/02 01:56:51;;;;;;;4.13;3.30;;;6.30;78.50;;;5.35;63.80;95554.16;5093011;28;20248;-85
2022/01/02 01:59:21;;;;;;;4.00;3.20;;;6.30;78.50;;;5.33;64.12;95550.06;5093369;28;20202;-85
2022/01/02 02:01:50;;;;;;;6.50;3.55;;;6.30;78.60;;;5.37;63.81;95554.84;5092170;28;20198;-85
2022/01/02 02:04:19;;;;;;;3.70;3.10;;;6.30;78.70;;;5.36;63.73;95553.22;5059549;28;20687;-84
2022/01/02 02:06:46;;;;;;;3.88;3.13;;;6.20;78.70;;;5.35;63.69;95551.56;5076497;28;20201;-85
2022/01/02 02:09:15;;;;;;;4.07;3.05;;;6.20;78.60;;;5.31;63.99;95545.03;5060118;28;20222;-85
2022/01/02 02:11:43;;;;;;;3.78;3.10;;;6.20;78.70;;;5.38;63.97;95553.06;5075408;28;20211;-84
2022/01/02 02:14:10;;;;;;;4.20;3.20;;;6.20;78.80;;;5.40;64.02;95551.13;5075475;28;20191;-85
2022/01/02 02:16:39;;;;;;;5.15;3.40;;;6.20;78.90;;;5.41;64.13;95556.19;5059628;28;20198;-84
2022/01/02 02:19:10;;;;;;;3.55;3.10;;;6.30;78.90;;;5.37;64.04;95551.41;5059373;28;20765;-85
2022/01/02 02:21:39;;;;;;;4.38;3.00;;;6.20;78.80;;;5.40;63.87;95561.53;5059543;28;20203;-84
2022/01/02 02:24:07;;;;;;;4.20;3.10;;;6.20;78.80;;;5.38;63.88;95550.44;5059794;28;20198;-85
2022/01/02 02:26:38;;;;;;;5.03;3.45;;;6.30;78.90;;;5.36;63.70;95550.59;5075999;28;20203;-85
2022/01/02 02:29:06;;;;;;;3.92;3.10;;;6.30;79.00;;;5.34;63.95;95547.31;5075353;28;20226;-84
2022/01/02 02:31:34;;;;;;;5.07;2.90;;;6.20;78.80;;;5.28;64.04;95538.31;5092490;28;20340;-85
2022/01/02 02:34:02;;;;;;;3.80;3.00;;;6.20;78.90;;;5.32;64.10;95545.81;5075715;28;20198;-85
2022/01/02 02:36:29;;;;;;;2.95;2.60;;;6.20;78.80;;;5.27;63.68;95541.03;5059088;28;20207;-84
2022/01/02 02:38:57;;;;;;;3.15;2.58;;;6.20;78.80;;;5.29;64.08;95546.94;5092620;28;20597;-85
2022/01/02 02:41:30;;;;;;;3.92;3.10;;;6.20;78.80;;;5.29;64.17;95528.72;5075771;28;20230;-85
2022/01/02 02:44:07;;;;;;;4.50;3.10;;;6.20;78.90;;;5.32;64.12;95528.44;5097123;28;20198;-84
2022/01/02 02:49:22;;;;;;;4.35;2.85;;;6.20;79.00;;;5.28;63.89;95522.72;5096064;28;20194;-85
2022/01/02 02:54:25;;;;;;;3.88;2.97;;;6.20;79.20;;;5.39;63.81;95498.28;5096329;28;20198;-85
2022/01/02 02:56:58;;;;;;;4.65;2.80;;;6.20;79.30;;;5.39;64.14;95500.06;5096221;28;20187;-84
2022/01/02 02:59:35;;;;;;;3.67;3.10;;;6.20;79.10;;;5.39;64.26;95502.66;5096650;28;20257;-84
2022/01/02 03:02:05;;;;;;;3.88;2.97;;;6.20;79.30;;;5.36;64.10;95492.53;5080113;28;20197;-84
2022/01/02 03:04:39;;;;;;;4.15;3.08;;;6.20;79.10;;;5.37;64.05;95489.81;5080221;28;20226;-85
2022/01/02 03:07:06;;;;;;;3.47;2.97;;;6.20;79.10;;;5.36;63.70;95485.56;5096423;28;20206;-84
2022/01/02 03:12:01;;;;;;;3.40;2.88;;;6.20;79.10;;;5.34;64.31;95476.28;5095890;28;20301;-85
2022/01/02 03:14:30;;;;;;;4.07;2.72;;;6.20;79.10;;;5.32;64.33;95480.78;5079477;28;20233;-83
2022/01/02 03:16:59;;;;;;;3.75;3.15;;;6.20;79.00;;;5.28;64.20;95475.91;5063168;28;20644;-85
2022/01/02 03:19:27;;;;;;;3.75;3.17;;;6.20;79.00;;;5.27;64.21;95474.25;5062607;28;20718;-84
2022/01/02 03:21:55;;;;;;;3.75;2.90;;;6.20;79.00;;;5.22;64.01;95460.84;5078278;28;20201;-84
2022/01/02 03:24:23;;;;;;;3.45;2.90;;;6.20;79.10;;;5.22;64.02;95452.25;5078827;28;20191;-85
2022/01/02 03:26:50;;;;;;;3.58;3.28;;;6.10;78.90;;;5.18;64.34;95443.91;5075631;28;20226;-84
2022/01/02 03:29:17;;;;;;;3.95;3.00;;;6.10;78.90;;;5.15;64.33;95436.41;5058812;28;20282;-85
2022/01/02 03:31:44;;;;;;;4.68;2.90;;;6.10;78.90;;;5.10;63.90;95429.03;5083582;28;20692;-84
2022/01/02 03:34:12;;;;;;;4.38;3.35;;;6.00;78.80;;;5.09;64.00;95439.56;5095810;28;20187;-84
2022/01/02 03:36:39;;;;;;;5.00;3.30;;;6.00;79.70;;;5.06;64.30;95452.88;5094957;28;20213;-84
2022/01/02 03:39:07;;;;;;;4.15;3.15;;;6.00;79.00;;;5.08;64.47;95443.97;5095537;28;20187;-85
2022/01/02 03:41:34;;;;;;;3.33;2.90;;;6.00;79.10;;;5.09;64.64;95443.00;5094859;28;20198;-85
2022/01/02 03:44:01;;;;;;;4.07;2.90;;;6.00;79.20;;;5.11;64.31;95440.25;5095383;28;20190;-84
2022/01/02 03:46:28;;;;;;;3.47;2.85;;;6.00;79.20;;;5.13;64.73;95436.53;5061888;28;20218;-84
2022/01/02 03:48:56;;;;;;;3.90;2.88;;;6.00;79.30;;;5.16;64.95;95429.41;5095659;28;20190;-84
2022/01/02 03:51:24;;;;;;;2.70;2.45;;;6.00;79.40;;;5.17;64.44;95431.06;5094924;28;20226;-84
2022/01/02 03:53:52;;;;;;;3.00;2.70;;;6.00;79.30;;;5.16;64.60;95425.03;5077718;28;20205;-85
2022/01/02 03:56:19;;;;;;;3.80;3.05;;;6.00;79.20;;;5.15;64.33;95423.41;5094989;28;20218;-85
2022/01/02 03:58:46;;;;;;;3.47;2.88;;;6.00;79.20;;;5.12;64.00;95424.50;5080995;28;20198;-84
2022/01/02 04:01:13;;;;;;;11.40;8.40;;;6.00;79.20;;;5.09;64.45;95421.38;5064594;28;20218;-84
2022/01/02 04:03:40;;;;;;;21.35;9.98;;;6.00;79.10;;;5.09;64.44;95409.19;5063199;28;20194;-84
2022/01/02 04:06:08;;;;;;;43.83;5.70;;;6.00;79.20;;;5.08;64.55;95410.16;5061682;28;20233;-84
2022/01/02 04:08:35;;;;;;;18.20;4.60;;;6.00;79.30;;;5.08;64.84;95409.34;5061548;28;20364;-85
2022/01/02 04:11:02;;;;;;;35.33;4.20;;;6.00;79.30;;;5.10;64.43;95415.22;5078376;28;20834;-85
2022/01/02 04:13:29;;;;;;;52.42;4.28;;;6.00;79.40;;;5.12;64.46;95408.09;5078635;28;20226;-85
2022/01/02 04:15:56;;;;;;;54.80;4.60;;;6.00;79.50;;;5.13;64.91;95402.72;5077508;28;20240;-84
2022/01/02 04:18:24;;;;;;;49.67;4.22;;;6.00;79.50;;;5.10;64.52;95395.25;5061214;28;20187;-84
2022/01/02 04:20:53;;;;;;;14.02;3.60;;;6.00;79.50;;;5.18;64.90;95385.91;5060497;28;20219;-83
2022/01/02 04:23:20;;;;;;;14.88;4.03;;;6.00;79.50;;;5.20;64.44;95383.94;5077130;28;20190;-84
2022/01/02 04:25:47;;;;;;;3.92;3.40;;;6.00;79.60;;;5.20;64.71;95384.78;5077218;28;20680;-83
2022/01/02 04:28:15;;;;;;;5.63;3.63;;;6.00;79.60;;;5.26;64.74;95383.34;5060642;28;20186;-83
2022/01/02 04:30:42;;;;;;;3.95;3.40;;;6.00;79.70;;;5.29;64.84;95373.47;5060390;28;20687;-84
2022/01/02 04:33:10;;;;;;;4.70;3.92;;;6.00;79.60;;;5.32;64.56;95376.75;5062184;28;20257;-84
2022/01/02 04:35:39;;;;;;;4.82;3.88;;;6.10;79.80;;;5.30;64.58;95366.50;5061677;28;20276;-84
2022/01/02 04:38:06;;;;;;;5.55;4.13;;;6.10;79.70;;;5.36;64.51;95363.31;5060235;28;20222;-84
2022/01/02 04:40:33;;;;;;;6.05;4.38;;;6.10;79.70;;;5.37;64.58;95369.31;5061695;28;20343;-84
2022/01/02 04:43:04;;;;;;;5.93;4.18;;;6.10;79.70;;;5.36;64.63;95376.31;5063646;28;20206;-84
2022/01/02 04:45:32;;;;;;;5.20;3.97;;;6.30;79.80;;;5.36;64.63;95376.31;5052705;28;20222;-84
2022/01/02 04:47:59;;;;;;;5.03;3.83;;;6.20;79.60;;;5.35;64.82;95368.69;5047221;28;20210;-83
2022/01/02 04:50:27;;;;;;;5.32;4.57;;;6.20;79.60;;;5.34;64.94;95373.03;5044674;28;20214;-83
2022/01/02 04:52:55;;;;;;;6.45;4.00;;;6.20;79.60;;;5.28;64.66;95352.81;5082111;28;20229;-84
2022/01/02 04:55:22;;;;;;;5.55;3.70;;;6.20;79.60;;;5.32;64.58;95354.16;5070466;28;20211;-84
2022/01/02 04:57:50;;;;;;;5.25;3.90;;;6.20;79.50;;;5.29;64.54;95351.88;5051995;28;20187;-84
2022/01/02 05:00:17;;;;;;;5.25;3.80;;;6.20;79.50;;;5.24;64.88;95354.91;5077526;28;20287;-84
2022/01/02 05:02:49;;;;;;;5.18;3.80;;;6.10;79.30;;;5.21;64.98;95349.19;5076288;28;20653;-85
2022/01/02 05:05:18;;;;;;;4.50;3.58;;;6.10;79.40;;;5.13;64.69;95337.72;5059083;28;20226;-84
2022/01/02 05:07:46;;;;;;;3.75;2.97;;;6.10;79.30;;;5.15;64.82;95340.19;5075646;28;20278;-83
2022/01/02 05:10:13;;;;;;;4.38;3.70;;;6.20;79.40;;;5.10;64.73;95327.63;5058308;28;20286;-83
2022/01/02 05:12:41;;;;;;;3.75;2.92;;;6.10;79.40;;;5.14;64.88;95315.16;5091605;28;20695;-84
2022/01/02 05:15:09;;;;;;;3.90;3.28;;;6.00;80.20;;;5.13;65.07;95309.13;5091645;28;20214;-84
2022/01/02 05:17:36;;;;;;;3.90;3.08;;;6.00;79.50;;;5.10;65.07;95306.84;5058349;28;20255;-83
2022/01/02 05:20:06;;;;;;;3.75;3.00;;;6.00;79.60;;;5.16;64.92;95310.63;5058977;28;20711;-84
2022/01/02 05:22:35;;;;;;;5.22;3.00;;;6.00;79.70;;;5.15;64.97;95303.81;5058925;28;20202;-84
2022/01/02 05:25:04;;;;;;;3.95;2.83;;;6.00;79.70;;;5.18;64.94;95303.50;5075017;28;20250;-84
2022/01/02 05:27:31;;;;;;;3.80;3.28;;;6.00;79.70;;;5.18;65.40;95287.88;5059086;28;20195;-83
2022/01/02 05:29:58;;;;;;;5.28;3.25;;;6.00;79.80;;;5.29;65.87;95299.84;5074354;28;20306;-83
2022/01/02 05:32:28;;;;;;;3.80;2.78;;;6.00;80.00;;;5.35;65.38;95283.66;5109627;28;20268;-84
2022/01/02 05:34:55;;;;;;;3.80;2.80;;;6.10;80.10;;;5.40;65.59;95278.81;5093182;28;20218;-84
2022/01/02 05:37:22;;;;;;;3.80;2.90;;;6.20;80.30;;;5.45;65.48;95280.97;5093005;28;20182;-85
2022/01/02 05:39:50;;;;;;;3.03;2.55;;;6.20;80.30;;;5.51;65.10;95279.53;5076082;28;20268;-84
2022/01/02 05:42:17;;;;;;;2.65;2.42;;;6.20;80.20;;;5.52;64.97;95282.00;5076293;28;20347;-82
2022/01/02 05:44:44;;;;;;;3.20;2.55;;;6.20;80.10;;;5.48;64.74;95272.88;5092907;28;20222;-83
2022/01/02 05:47:11;;;;;;;3.03;2.33;;;6.30;80.10;;;5.53;65.23;95273.22;5109110;28;20198;-83
2022/01/02 05:49:40;;;;;;;3.03;2.55;;;6.30;80.10;;;5.57;65.40;95271.94;5060242;28;20219;-82
2022/01/02 05:52:07;;;;;;;3.10;2.47;;;6.30;80.10;;;5.59;65.31;95264.81;5059346;28;20233;-83
2022/01/02 05:54:34;;;;;;;3.85;2.63;;;6.30;80.20;;;5.67;65.77;95266.63;5075919;28;20559;-84
2022/01/02 05:57:02;;;;;;;3.28;2.70;;;6.40;80.30;;;5.73;65.64;95265.22;5091913;28;20199;-84
2022/01/02 05:59:29;;;;;;;3.45;2.50;;;6.40;80.40;;;5.75;65.38;95256.28;5075828;28;20313;-84
2022/01/02 06:01:57;;;;;;;2.65;2.28;;;6.50;80.50;;;5.74;65.17;95251.25;5076017;28;20195;-85
2022/01/02 06:04:27;;;;;;;2.28;2.05;;;6.50;80.30;;;5.77;65.20;95256.13;5058781;28;20743;-83
2022/01/02 06:06:54;;;;;;;4.10;3.10;;;6.50;80.30;;;5.79;65.09;95264.59;5075601;28;20248;-84
2022/01/02 06:09:22;;;;;;;4.63;3.05;;;6.50;80.10;;;5.76;65.12;95262.28;5075851;28;20191;-83
2022/01/02 06:11:50;;;;;;;3.75;2.70;;;6.50;80.00;;;5.67;64.78;95252.81;5059380;28;20278;-83
2022/01/02 06:14:19;;;;;;;2.70;2.40;;;6.50;79.90;;;5.66;64.75;95261.59;5059751;28;20206;-84
2022/01/02 06:16:47;;;;;;;2.83;2.10;;;6.50;79.80;;;5.58;64.92;95260.56;5054946;28;20582;-83
2022/01/02 06:19:14;;;;;;;3.25;2.10;;;6.50;79.60;;;5.52;64.91;95265.56;5055897;28;20272;-85
2022/01/02 06:21:42;;;;;;;3.30;2.45;;;6.40;80.40;;;5.46;65.03;95267.00;5056793;28;20210;-84
2022/01/02 06:24:10;;;;;;;3.05;2.33;;;6.50;79.60;;;5.38;64.83;95261.72;5066411;28;20567;-85
2022/01/02 06:26:38;;;;;;;2.70;2.25;;;6.40;79.50;;;5.32;65.04;95264.91;5088682;28;20292;-85
2022/01/02 06:29:06;;;;;;;2.20;1.88;;;6.30;79.40;;;5.22;65.08;95260.59;5072554;28;20203;-85
2022/01/02 06:31:33;;;;;;;2.72;2.20;;;6.30;79.40;;;5.13;64.80;95249.31;5042044;28;20248;-85
2022/01/02 06:34:02;;;;;;;3.42;2.10;;;6.20;79.40;;;5.15;65.14;95269.16;5075814;28;20272;-84
2022/01/02 06:36:29;;;;;;;2.15;1.95;;;6.10;79.40;;;5.11;65.06;95263.44;5075592;28;20302;-86
2022/01/02 06:38:56;;;;;;;3.03;2.58;;;6.10;79.50;;;5.05;64.98;95264.03;5092785;28;20199;-85
2022/01/02 06:41:23;;;;;;;3.60;2.50;;;6.00;79.40;;;5.01;64.97;95267.91;5059007;28;20216;-86
2022/01/02 06:43:52;;;;;;;3.10;2.53;;;6.00;79.40;;;4.96;64.96;95276.16;5058499;28;20205;-85
2022/01/02 06:46:22;;;;;;;2.78;2.08;;;6.00;79.40;;;4.88;64.67;95265.66;5093370;28;20301;-85
2022/01/02 06:48:50;;;;;;;3.40;2.25;;;5.90;79.40;;;4.83;64.94;95270.50;5092527;28;20200;-85
2022/01/02 06:51:37;;;;;;;2.47;2.20;;;5.80;79.20;;;4.77;65.08;95266.69;5092163;28;20222;-85
2022/01/02 06:54:04;;;;;;;2.67;2.20;;;5.80;79.30;;;4.67;65.21;95252.97;5092420;28;20230;-84
2022/01/02 06:56:31;;;;;;;3.47;2.25;;;5.70;79.30;;;4.69;65.47;95259.66;5091160;28;20210;-84
2022/01/02 06:58:59;;;;;;;3.53;2.67;;;5.70;79.40;;;4.66;65.24;95267.72;5075256;28;20203;-84
2022/01/02 07:01:27;;;;;;;5.57;3.30;;;5.70;79.40;;;4.63;65.43;95263.63;5074105;28;20225;-85
2022/01/02 07:03:55;;;;;;;5.53;3.30;;;5.60;79.50;;;4.63;65.44;95266.22;5091806;28;20240;-84
2022/01/02 07:06:23;;;;;;;6.70;4.05;;;5.60;79.60;;;4.65;65.24;95264.31;5075311;28;20229;-84
2022/01/02 07:08:50;;;;;;;7.18;3.42;;;5.60;79.70;;;4.58;65.19;95246.88;5058686;28;20264;-84
2022/01/02 07:11:18;;;;;;;18.73;9.25;;;5.60;79.70;;;4.56;65.43;95247.00;5074085;28;20324;-85
2022/01/02 07:13:45;;;;;;;34.15;13.10;;;5.60;79.60;;;4.58;65.33;95244.28;5075099;28;20246;-84
2022/01/02 07:16:12;;;;;;;19.67;10.98;;;5.50;79.50;;;4.54;65.23;95243.75;5073885;28;20749;-84
2022/01/02 07:18:40;;;;;;;21.92;11.10;;;5.50;79.50;;;4.53;65.06;95244.72;5070627;28;20591;-84
2022/01/02 07:21:07;;;;;;;26.42;12.23;;;5.50;79.60;;;4.44;65.18;95233.41;5092153;28;20229;-85
2022/01/02 07:23:34;;;;;;;18.55;9.82;;;5.50;79.60;;;4.51;65.70;95244.03;5058759;28;20190;-85
2022/01/02 07:26:01;;;;;;;13.02;7.95;;;5.40;79.60;;;4.51;65.16;95246.63;5073107;28;20222;-85
2022/01/02 07:28:33;;;;;;;15.35;7.93;;;5.40;79.70;;;4.52;65.24;95250.03;5060553;28;20222;-85
2022/01/02 07:31:01;;;;;;;18.05;8.75;;;5.40;79.80;;;4.48;65.20;95239.13;5080431;28;20256;-84
2022/01/02 07:33:28;;;;;;;14.45;8.52;;;5.40;79.80;;;4.52;65.10;95240.47;5062268;28;20230;-84
2022/01/02 07:35:55;;;;;;;10.98;6.40;;;5.40;79.70;;;4.46;65.30;95241.06;5061943;28;20260;-84
2022/01/02 07:38:31;;;;;;;6.57;4.63;;;5.40;79.70;;;4.50;64.99;95239.78;5091528;28;20289;-84
2022/01/02 07:40:58;;;;;;;6.18;4.78;;;5.40;79.60;;;4.47;65.18;95246.09;5098870;28;20245;-84
2022/01/02 07:43:26;;;;;;;5.75;3.92;;;5.40;79.60;;;4.45;64.85;95240.22;5082376;28;20198;-86
2022/01/02 07:45:53;;;;;;;4.68;3.70;;;5.40;79.70;;;4.46;65.13;95247.06;5079283;28;20214;-84
2022/01/02 07:48:20;;;;;;;5.10;3.80;;;5.30;79.60;;;4.47;65.14;95242.69;5095544;28;20206;-84
2022/01/02 07:50:47;;;;;;;4.82;3.63;;;5.40;79.80;;;4.47;65.11;95240.09;5061897;28;20214;-84
2022/01/02 07:53:15;;;;;;;4.57;3.50;;;5.30;79.70;;;4.48;65.24;95237.34;5078411;28;20399;-84
2022/01/02 07:55:43;;;;;;;4.13;2.97;;;5.30;79.80;;;4.51;65.35;95235.44;5077730;28;20218;-84
2022/01/02 07:58:14;;;;;;;4.07;3.10;;;5.30;79.90;;;4.54;65.51;95238.56;5094806;27;20261;-84
2022/01/02 08:00:41;;;;;;;3.42;2.78;;;5.40;80.10;;;4.57;65.44;95230.44;5078771;28;20234;-84
2022/01/02 08:03:09;;;;;;;3.05;2.75;;;5.40;80.10;;;4.64;65.51;95239.28;5077641;28;20203;-85
2022/01/02 08:05:39;;;;;;;3.67;3.08;;;5.40;80.30;;;4.70;65.36;95235.31;5095933;28;20224;-85
2022/01/02 08:08:07;;;;;;;5.32;3.50;;;5.40;80.30;;;4.72;65.39;95227.34;5074193;28;20203;-84
2022/01/02 08:10:34;;;;;;;5.60;4.50;;;5.40;80.30;;;4.79;65.50;95236.19;5085205;28;20596;-85
2022/01/02 08:13:02;;;;;;;7.70;6.55;;;5.50;80.40;;;4.83;65.26;95237.50;5077749;28;20280;-84
2022/01/02 08:15:29;;;;;;;11.57;9.80;;;5.50;80.30;;;4.81;65.48;95227.28;5061578;28;20305;-84
2022/01/02 08:17:57;;;;;;;10.55;9.40;;;5.50;80.30;;;4.88;65.21;95216.28;5078159;28;20197;-84
2022/01/02 08:20:24;;;;;;;9.50;8.45;;;5.60;80.40;;;4.86;65.24;95207.81;5061564;28;20240;-85
2022/01/02 08:22:52;;;;;;;8.38;7.47;;;5.60;80.40;;;4.93;65.56;95207.09;5094071;28;20195;-84
2022/01/02 08:25:20;;;;;;;8.82;7.78;;;5.60;80.40;;;4.97;65.29;95205.81;5061517;28;20305;-85
2022/01/02 08:27:48;;;;;;;9.55;8.05;;;5.70;80.60;;;5.05;65.44;95209.44;5077015;28;20206;-84
2022/01/02 08:30:15;;;;;;;7.05;6.25;;;5.70;81.40;;;5.13;65.41;95209.53;5060195;28;20238;-84
2022/01/02 08:32:42;;;;;;;5.90;5.22;;;5.70;80.70;;;5.14;65.57;95198.16;5077928;28;20195;-84
2022/01/02 08:35:09;;;;;;;5.45;4.80;;;5.80;80.90;;;5.28;65.36;95207.19;5061449;28;20664;-85
2022/01/02 08:37:36;;;;;;;5.53;4.07;;;5.90;81.10;;;5.36;65.76;95206.41;5093824;28;20680;-85
2022/01/02 08:40:04;;;;;;;5.57;4.63;;;5.90;81.00;;;5.40;65.60;95198.16;5062698;28;20215;-85
2022/01/02 08:42:32;;;;;;;6.72;5.20;;;5.90;81.10;;;5.53;65.55;95202.97;5077775;28;20229;-85
2022/01/02 08:44:59;;;;;;;7.53;6.18;;;6.00;81.20;;;5.63;65.78;95199.44;5077218;28;20279;-85
2022/01/02 08:47:27;;;;;;;8.75;6.30;;;6.10;81.30;;;5.72;65.63;95195.91;5080961;28;20686;-87
2022/01/02 08:49:54;;;;;;;8.45;5.95;;;6.10;81.40;;;5.83;65.47;95193.03;5095501;28;20210;-86
2022/01/02 08:52:23;;;;;;;6.82;6.05;;;6.20;81.60;;;5.89;65.77;95187.22;5060684;28;20226;-85
2022/01/02 08:54:51;;;;;;;12.05;10.13;;;6.30;81.70;;;6.06;66.03;95195.13;5093554;28;20237;-85
2022/01/02 08:57:18;;;;;;;10.18;8.75;;;6.40;81.70;;;6.18;65.67;95199.09;5094245;28;20195;-86
2022/01/02 08:59:46;;;;;;;12.13;10.80;;;6.50;81.80;;;6.31;65.62;95203.03;5094729;28;20317;-85
2022/01/02 09:02:13;;;;;;;11.77;9.90;;;6.60;81.90;;;6.43;65.84;95198.34;5099778;28;20248;-86
2022/01/02 09:04:40;;;;;;;10.57;9.18;;;6.70;82.00;;;6.55;65.84;95190.09;5077198;28;20223;-86
2022/01/02 09:07:09;;;;;;;10.05;8.35;;;6.80;82.20;;;6.65;65.71;95189.13;5094165;28;20194;-86
2022/01/02 09:09:37;;;;;;;10.32;8.50;;;6.90;82.30;;;6.83;65.86;95196.81;5094209;28;20225;-85
2022/01/02 09:12:06;;;;;;;8.63;7.70;;;7.00;82.40;;;6.98;65.81;95195.19;5092096;28;20191;-86
2022/01/02 09:14:33;;;;;;;7.35;6.50;;;7.10;82.60;;;7.08;65.74;95175.94;5060520;28;20268;-87
2022/01/02 09:17:01;;;;;;;7.28;6.10;;;7.30;82.80;;;7.28;65.68;95182.47;5076909;28;20195;-88
2022/01/02 09:19:28;;;;;;;6.25;5.38;;;7.40;82.90;;;7.44;65.49;95178.22;5076983;28;20283;-87
2022/01/02 09:21:56;;;;;;;5.00;4.47;;;7.50;83.10;;;7.67;65.99;95194.78;5056133;28;20282;-87
2022/01/02 09:24:24;;;;;;;5.68;4.80;;;7.60;83.10;;;7.78;65.84;95179.78;5056987;28;20642;-86
2022/01/02 09:26:51;;;;;;;5.70;5.05;;;7.80;83.20;;;7.94;65.46;95186.75;5075877;28;20211;-85
2022/01/02 09:29:19;;;;;;;4.72;4.20;;;8.00;83.10;;;8.02;65.43;95190.13;5060295;28;20194;-87
2022/01/02 09:31:51;;;;;;;5.65;4.20;;;8.10;82.80;;;8.06;65.35;95174.13;5076870;28;20191;-87
2022/01/02 09:34:19;;;;;;;5.32;4.82;;;8.20;82.90;;;8.13;65.44;95175.88;5060143;28;20233;-88
2022/01/02 09:36:46;;;;;;;6.72;4.63;;;8.30;82.80;;;8.21;65.91;95167.19;5076501;28;20194;-87
2022/01/02 09:39:16;;;;;;;6.15;5.40;;;8.50;82.80;;;8.32;65.75;95168.59;5076299;28;20195;-86
2022/01/02 09:41:44;;;;;;;7.50;5.28;;;8.50;83.00;;;8.53;65.86;95178.47;5059958;28;20199;-86
2022/01/02 09:44:12;;;;;;;5.18;4.40;;;8.60;82.90;;;8.62;65.76;95168.81;5058999;28;20202;-86
2022/01/02 09:46:41;;;;;;;6.10;4.15;;;8.70;82.90;;;8.70;65.77;95154.88;5089691;28;20286;-88
2022/01/02 09:49:11;;;;;;;6.75;4.68;;;8.90;82.90;;;8.80;65.63;95161.50;5091058;28;20294;-87
2022/01/02 09:51:40;;;;;;;7.05;6.35;;;8.90;82.70;;;8.92;65.51;95159.28;5075851;28;20232;-87
2022/01/02 09:54:10;;;;;;;6.97;6.15;;;9.00;82.70;;;9.03;65.74;95165.88;5088841;28;20253;-87
2022/01/02 09:56:37;;;;;;;7.75;5.70;;;9.20;82.80;;;9.17;65.73;95166.09;5089783;28;20300;-85
2022/01/02 09:59:05;;;;;;;5.80;5.18;;;9.20;82.80;;;9.31;65.97;95161.91;5087840;28;20206;-87
2022/01/02 10:01:32;;;;;;;6.00;5.00;;;9.30;82.90;;;9.45;65.97;95153.28;5075716;28;20226;-88
2022/01/02 10:04:00;;;;;;;5.25;4.60;;;9.50;83.20;;;9.66;65.93;95149.94;5075483;28;20195;-87
2022/01/02 10:06:56;;;;;;;5.57;4.47;;;9.60;83.30;;;9.85;65.71;95143.34;5071669;28;20222;-85
2022/01/02 10:09:37;;;;;;;4.38;3.55;;;9.80;83.60;;;9.99;65.50;95131.22;5055433;28;20407;-86
2022/01/02 10:12:32;;;;;;;3.42;3.05;;;9.90;83.50;;;10.14;65.51;95138.25;5073005;28;20203;-85
2022/01/02 10:15:13;;;;;;;3.13;2.83;;;10.10;82.20;;;10.19;65.38;95134.09;5059361;28;20761;-86
2022/01/02 10:18:10;;;;;;;3.38;2.83;;;10.20;82.00;;;10.28;65.33;95128.75;5075374;28;20658;-86
2022/01/02 10:20:39;;;;;;;3.17;2.58;;;10.30;81.80;;;10.31;65.09;95118.69;5058948;28;20263;-86
2022/01/02 10:23:16;;;;;;;3.42;2.70;;;10.40;81.40;;;10.33;65.02;95118.53;5059207;28;20544;-85
2022/01/02 10:25:45;;;;;;;3.10;2.80;;;10.50;81.40;;;10.36;65.16;95115.53;5054962;28;20264;-86
2022/01/02 10:28:25;;;;;;;2.92;2.45;;;10.60;81.20;;;10.36;65.09;95105.03;5076667;28;20229;-87
2022/01/02 10:31:17;;;;;;;2.72;2.53;;;10.60;81.10;;;10.30;65.18;95092.66;5084920;28;20213;-87
2022/01/02 10:33:52;;;;;;;3.03;2.63;;;10.60;80.90;;;10.32;65.04;95091.47;5085923;28;20226;-87
2022/01/02 10:36:37;;;;;;;3.00;2.70;;;10.70;80.80;;;10.36;65.51;95097.16;5062164;28;20237;-87
2022/01/02 10:39:20;;;;;;;3.30;2.70;;;10.70;80.90;;;10.35;65.31;95082.44;5083412;28;20668;-87
2022/01/02 10:41:50;;;;;;;4.05;2.80;;;10.70;80.80;;;10.37;65.30;95083.91;5092736;28;20713;-86
2022/01/02 10:44:34;;;;;;;5.03;2.90;;;10.80;80.80;;;10.34;65.31;95081.63;5092109;28;20191;-87
2022/01/02 10:47:18;;;;;;;5.60;2.80;;;10.80;80.80;;;10.37;65.33;95081.28;5092161;28;20255;-87
2022/01/02 10:49:55;;;;;;;3.38;2.88;;;10.80;80.80;;;10.38;65.24;95076.84;5055769;28;20218;-86